createdAt,value
2022-07-27T00:00:08.519Z,1.95
2022-07-27T00:01:15.726Z,1.88
2022-07-27T00:02:18.408Z,2.40
2022-07-27T00:03:21.317Z,2.28
2022-07-27T00:04:24.299Z,2.03
2022-07-27T00:05:27.220Z,2.10
2022-07-27T00:06:30.039Z,1.70
2022-07-27T00:07:32.514Z,2.20
2022-07-27T00:08:36.394Z,2.30
2022-07-27T00:09:39.397Z,1.95
2022-07-27T00:10:42.340Z,1.90
2022-07-27T00:11:45.748Z,2.13
2022-07-27T00:12:48.276Z,1.88
2022-07-27T00:13:50.876Z,2.05
2022-07-27T00:14:53.489Z,2.03
2022-07-27T00:15:56.273Z,1.92
2022-07-27T00:16:59.040Z,1.77
2022-07-27T00:18:01.788Z,1.55
2022-07-27T00:19:08.635Z,1.98
2022-07-27T00:20:12.434Z,1.50
2022-07-27T00:21:15.227Z,1.67
2022-07-27T00:22:17.880Z,1.55
2022-07-27T00:23:20.431Z,1.58
2022-07-27T00:24:22.979Z,1.52
2022-07-27T00:25:29.129Z,1.52
2022-07-27T00:26:31.728Z,1.90
2022-07-27T00:27:34.471Z,1.35
2022-07-27T00:28:37.289Z,1.60
2022-07-27T00:29:40.015Z,1.25
2022-07-27T00:30:42.745Z,1.65
2022-07-27T00:31:45.374Z,1.50
2022-07-27T00:32:48.214Z,1.77
2022-07-27T00:33:50.792Z,1.42
2022-07-27T00:34:54.201Z,1.63
2022-07-27T00:35:56.885Z,1.65
2022-07-27T00:37:00.054Z,1.17
2022-07-27T00:38:02.899Z,1.50
2022-07-27T00:39:05.691Z,1.45
2022-07-27T00:40:09.239Z,1.65
2022-07-27T00:41:11.847Z,1.77
2022-07-27T00:42:19.321Z,1.70
2022-07-27T00:43:22.786Z,1.63
2022-07-27T00:44:27.253Z,1.30
2022-07-27T00:45:30.047Z,1.60
2022-07-27T00:46:33.363Z,1.35
2022-07-27T00:47:36.139Z,1.35
2022-07-27T00:48:38.709Z,1.25
2022-07-27T00:49:41.424Z,1.60
2022-07-27T00:50:46.788Z,1.00
2022-07-27T00:51:49.895Z,1.27
2022-07-27T00:52:52.884Z,1.20
2022-07-27T00:53:56.271Z,1.30
2022-07-27T00:54:59.599Z,1.30
2022-07-27T00:56:02.394Z,1.77
2022-07-27T00:57:05.866Z,1.42
2022-07-27T00:58:09.098Z,1.30
2022-07-27T00:59:13.278Z,1.55
2022-07-27T01:00:16.681Z,1.20
2022-07-27T01:01:20.167Z,0.90
2022-07-27T01:02:23.458Z,0.80
2022-07-27T01:03:29.539Z,1.20
2022-07-27T01:04:33.092Z,1.02
2022-07-27T01:05:37.973Z,1.40
2022-07-27T01:06:46.260Z,1.27
2022-07-27T01:07:51.909Z,0.90
2022-07-27T01:09:14.287Z,1.10
2022-07-27T01:10:18.058Z,1.02
2022-07-27T01:11:20.778Z,0.90
2022-07-27T01:12:28.283Z,1.00
2022-07-27T01:13:31.144Z,1.20
2022-07-27T01:14:33.684Z,0.70
2022-07-27T01:15:38.382Z,0.90
2022-07-27T01:16:41.727Z,1.02
2022-07-27T01:17:44.482Z,1.13
2022-07-27T01:18:47.277Z,1.15
2022-07-27T01:19:50.530Z,0.95
2022-07-27T01:20:53.654Z,0.95
2022-07-27T01:21:56.292Z,1.30
2022-07-27T01:22:58.925Z,0.88
2022-07-27T01:24:02.152Z,0.70
2022-07-27T01:25:05.067Z,0.80
2022-07-27T01:26:07.909Z,0.98
2022-07-27T01:27:10.924Z,1.25
2022-07-27T01:28:13.589Z,1.10
2022-07-27T01:29:16.291Z,0.90
2022-07-27T01:30:30.281Z,0.90
2022-07-27T01:31:33.214Z,1.20
2022-07-27T01:32:35.865Z,0.90
2022-07-27T01:33:38.589Z,0.88
2022-07-27T01:34:41.296Z,1.00
2022-07-27T01:35:43.857Z,1.00
2022-07-27T01:36:46.577Z,0.98
2022-07-27T01:37:49.406Z,0.77
2022-07-27T01:38:51.990Z,1.30
2022-07-27T01:39:54.837Z,0.95
2022-07-27T01:40:57.540Z,1.05
2022-07-27T01:42:00.745Z,1.00
2022-07-27T01:43:05.241Z,0.90
2022-07-27T01:44:07.925Z,0.88
2022-07-27T01:45:10.746Z,0.73
2022-07-27T01:46:13.351Z,0.88
2022-07-27T01:47:16.020Z,0.70
2022-07-27T01:48:18.753Z,0.90
2022-07-27T01:49:21.526Z,0.98
2022-07-27T01:50:24.102Z,1.10
2022-07-27T01:51:26.938Z,0.93
2022-07-27T01:52:29.876Z,1.20
2022-07-27T01:53:32.663Z,1.38
2022-07-27T01:54:35.161Z,0.88
2022-07-27T01:55:38.703Z,0.90
2022-07-27T01:56:42.029Z,1.00
2022-07-27T01:57:44.793Z,0.90
2022-07-27T01:58:47.620Z,0.80
2022-07-27T01:59:50.324Z,1.02
2022-07-27T02:00:53.292Z,0.90
2022-07-27T02:01:56.243Z,1.10
2022-07-27T02:02:59.121Z,0.93
2022-07-27T02:04:01.786Z,0.73
2022-07-27T02:05:05.755Z,0.80
2022-07-27T02:06:09.512Z,0.93
2022-07-27T02:07:12.394Z,0.88
2022-07-27T02:08:15.047Z,0.95
2022-07-27T02:09:17.762Z,0.82
2022-07-27T02:10:20.406Z,0.50
2022-07-27T02:11:41.504Z,0.90
2022-07-27T02:12:44.678Z,0.88
2022-07-27T02:13:49.406Z,0.90
2022-07-27T02:14:52.364Z,0.82
2022-07-27T02:15:57.635Z,0.70
2022-07-27T02:17:01.008Z,0.90
2022-07-27T02:18:05.210Z,1.00
2022-07-27T02:19:28.444Z,0.90
2022-07-27T02:20:31.953Z,0.90
2022-07-27T02:21:34.583Z,0.98
2022-07-27T02:22:37.769Z,1.25
2022-07-27T02:23:41.215Z,0.80
2022-07-27T02:24:44.181Z,0.80
2022-07-27T02:25:47.028Z,0.63
2022-07-27T02:26:50.018Z,1.00
2022-07-27T02:27:52.769Z,0.95
2022-07-27T02:28:55.536Z,0.90
2022-07-27T02:29:58.225Z,0.80
2022-07-27T02:31:01.357Z,0.95
2022-07-27T02:32:04.541Z,0.68
2022-07-27T02:33:09.021Z,0.88
2022-07-27T02:34:11.692Z,0.90
2022-07-27T02:35:18.660Z,0.90
2022-07-27T02:36:22.970Z,0.75
2022-07-27T02:37:25.812Z,0.85
2022-07-27T02:38:28.471Z,0.80
2022-07-27T02:39:31.127Z,0.50
2022-07-27T02:40:33.828Z,0.82
2022-07-27T02:41:36.472Z,1.23
2022-07-27T02:42:39.222Z,0.85
2022-07-27T02:43:41.847Z,0.95
2022-07-27T02:44:44.542Z,0.68
2022-07-27T02:45:47.303Z,0.77
2022-07-27T02:46:49.957Z,0.60
2022-07-27T02:47:52.543Z,0.68
2022-07-27T02:48:55.223Z,0.65
2022-07-27T02:49:57.930Z,0.90
2022-07-27T02:51:01.940Z,0.70
2022-07-27T02:52:05.990Z,0.65
2022-07-27T02:53:08.502Z,0.80
2022-07-27T02:54:10.990Z,0.75
2022-07-27T02:55:13.731Z,0.90
2022-07-27T02:56:16.562Z,0.75
2022-07-27T02:57:21.534Z,0.80
2022-07-27T02:58:24.721Z,0.85
2022-07-27T02:59:27.367Z,1.02
2022-07-27T03:00:30.199Z,0.70
2022-07-27T03:01:32.925Z,0.77
2022-07-27T03:02:36.737Z,0.70
2022-07-27T03:03:39.361Z,0.90
2022-07-27T03:04:42.066Z,0.63
2022-07-27T03:05:45.352Z,0.73
2022-07-27T03:06:48.065Z,0.55
2022-07-27T03:07:50.588Z,1.00
2022-07-27T03:08:53.298Z,0.80
2022-07-27T03:09:55.949Z,1.42
2022-07-27T03:10:58.557Z,0.65
2022-07-27T03:12:01.810Z,0.80
2022-07-27T03:13:04.821Z,0.95
2022-07-27T03:14:07.656Z,0.75
2022-07-27T03:15:10.803Z,0.70
2022-07-27T03:16:13.399Z,0.98
2022-07-27T03:17:16.047Z,0.88
2022-07-27T03:18:18.779Z,0.63
2022-07-27T03:19:21.424Z,1.10
2022-07-27T03:20:24.005Z,0.55
2022-07-27T03:21:26.720Z,0.75
2022-07-27T03:22:30.937Z,0.85
2022-07-27T03:23:33.637Z,0.52
2022-07-27T03:24:36.553Z,0.68
2022-07-27T03:25:39.501Z,0.80
2022-07-27T03:26:42.171Z,0.95
2022-07-27T03:27:44.687Z,1.52
2022-07-27T03:28:47.552Z,0.68
2022-07-27T03:29:50.420Z,0.60
2022-07-27T03:30:53.098Z,0.80
2022-07-27T03:31:55.742Z,0.70
2022-07-27T03:32:58.490Z,0.63
2022-07-27T03:34:02.151Z,0.60
2022-07-27T03:35:05.377Z,0.70
2022-07-27T03:36:08.038Z,0.55
2022-07-27T03:37:10.751Z,0.50
2022-07-27T03:38:13.635Z,0.77
2022-07-27T03:39:16.246Z,0.60
2022-07-27T03:40:19.064Z,0.88
2022-07-27T03:41:22.211Z,0.43
2022-07-27T03:42:24.864Z,0.70
2022-07-27T03:43:27.511Z,0.70
2022-07-27T03:44:30.055Z,0.57
2022-07-27T03:45:32.762Z,0.55
2022-07-27T03:46:35.594Z,0.80
2022-07-27T03:47:38.270Z,0.70
2022-07-27T03:48:40.920Z,0.63
2022-07-27T03:49:43.485Z,0.50
2022-07-27T03:50:46.138Z,0.80
2022-07-27T03:51:48.884Z,0.63
2022-07-27T03:52:52.031Z,1.42
2022-07-27T03:53:54.861Z,0.40
2022-07-27T03:54:57.589Z,1.02
2022-07-27T03:56:00.314Z,0.68
2022-07-27T03:57:02.899Z,0.55
2022-07-27T03:58:05.390Z,0.60
2022-07-27T03:59:08.008Z,0.80
2022-07-27T04:00:12.700Z,1.10
2022-07-27T04:01:15.411Z,0.70
2022-07-27T04:02:18.430Z,0.70
2022-07-27T04:03:21.029Z,0.82
2022-07-27T04:04:23.582Z,0.80
2022-07-27T04:05:29.425Z,0.70
2022-07-27T04:06:32.542Z,1.05
2022-07-27T04:07:35.266Z,0.70
2022-07-27T04:08:37.838Z,0.60
2022-07-27T04:09:41.589Z,0.50
2022-07-27T04:10:48.841Z,0.60
2022-07-27T04:11:51.723Z,0.52
2022-07-27T04:12:58.662Z,0.50
2022-07-27T04:14:01.916Z,0.63
2022-07-27T04:15:06.527Z,0.75
2022-07-27T04:16:09.548Z,0.70
2022-07-27T04:17:54.579Z,0.77
2022-07-27T04:18:37.424Z,0.80
2022-07-27T04:19:40.189Z,0.65
2022-07-27T04:20:42.813Z,0.85
2022-07-27T04:21:45.479Z,0.60
2022-07-27T04:22:48.968Z,0.75
2022-07-27T04:23:51.522Z,0.60
2022-07-27T04:24:54.178Z,1.38
2022-07-27T04:25:57.107Z,0.60
2022-07-27T04:26:59.766Z,0.50
2022-07-27T04:28:02.425Z,0.38
2022-07-27T04:29:05.053Z,0.80
2022-07-27T04:30:09.661Z,1.05
2022-07-27T04:31:12.682Z,0.95
2022-07-27T04:32:15.278Z,0.85
2022-07-27T04:33:18.129Z,0.70
2022-07-27T04:34:21.253Z,0.57
2022-07-27T04:35:26.700Z,0.80
2022-07-27T04:36:29.552Z,0.88
2022-07-27T04:37:35.300Z,0.90
2022-07-27T04:38:38.073Z,0.30
2022-07-27T04:39:40.763Z,0.90
2022-07-27T04:40:43.225Z,0.80
2022-07-27T04:41:45.954Z,0.60
2022-07-27T04:42:48.726Z,0.60
2022-07-27T04:43:52.796Z,0.60
2022-07-27T04:44:55.647Z,0.60
2022-07-27T04:45:58.468Z,0.60
2022-07-27T04:47:01.554Z,0.93
2022-07-27T04:48:10.808Z,0.47
2022-07-27T04:49:13.887Z,0.63
2022-07-27T04:50:16.767Z,0.73
2022-07-27T04:51:20.629Z,0.75
2022-07-27T04:52:26.456Z,0.60
2022-07-27T04:53:31.544Z,0.50
2022-07-27T04:54:34.467Z,0.65
2022-07-27T04:55:37.804Z,0.70
2022-07-27T04:56:40.679Z,0.40
2022-07-27T04:57:43.636Z,0.60
2022-07-27T04:58:46.996Z,0.60
2022-07-27T04:59:49.627Z,0.60
2022-07-27T05:00:53.089Z,0.60
2022-07-27T05:01:55.756Z,0.82
2022-07-27T05:02:58.522Z,0.70
2022-07-27T05:04:01.312Z,0.60
2022-07-27T05:05:04.048Z,0.50
2022-07-27T05:06:07.291Z,0.73
2022-07-27T05:07:09.857Z,0.70
2022-07-27T05:08:12.297Z,0.63
2022-07-27T05:09:15.094Z,0.40
2022-07-27T05:10:25.699Z,0.60
2022-07-27T05:11:28.547Z,0.55
2022-07-27T05:12:31.278Z,0.65
2022-07-27T05:13:33.930Z,0.40
2022-07-27T05:14:36.579Z,0.40
2022-07-27T05:15:54.479Z,0.63
2022-07-27T05:16:58.695Z,0.40
2022-07-27T05:18:01.270Z,0.60
2022-07-27T05:19:04.109Z,0.57
2022-07-27T05:20:07.256Z,0.57
2022-07-27T05:21:09.808Z,1.00
2022-07-27T05:22:12.346Z,0.70
2022-07-27T05:23:15.877Z,0.70
2022-07-27T05:24:18.461Z,0.60
2022-07-27T05:25:21.722Z,0.73
2022-07-27T05:26:24.371Z,0.50
2022-07-27T05:27:27.611Z,0.82
2022-07-27T05:28:30.426Z,0.45
2022-07-27T05:29:33.127Z,0.90
2022-07-27T05:30:35.788Z,0.80
2022-07-27T05:31:38.607Z,0.70
2022-07-27T05:32:41.353Z,1.02
2022-07-27T05:33:48.614Z,0.93
2022-07-27T05:34:52.669Z,0.43
2022-07-27T05:35:58.380Z,0.60
2022-07-27T05:37:01.239Z,0.50
2022-07-27T05:38:04.617Z,0.65
2022-07-27T05:39:11.743Z,0.82
2022-07-27T05:40:16.265Z,0.70
2022-07-27T05:41:26.463Z,0.63
2022-07-27T05:43:31.610Z,1.00
2022-07-27T05:44:34.309Z,0.60
2022-07-27T05:45:37.034Z,0.43
2022-07-27T05:46:39.896Z,0.40
2022-07-27T05:47:42.403Z,0.60
2022-07-27T05:48:45.242Z,0.80
2022-07-27T05:49:48.385Z,0.82
2022-07-27T05:50:51.149Z,0.60
2022-07-27T05:51:53.983Z,0.80
2022-07-27T05:52:58.836Z,0.80
2022-07-27T05:54:01.512Z,0.70
2022-07-27T05:55:05.127Z,0.50
2022-07-27T05:56:11.521Z,0.52
2022-07-27T05:57:15.591Z,1.08
2022-07-27T05:58:18.592Z,0.70
2022-07-27T05:59:26.561Z,0.63
2022-07-27T06:00:29.340Z,0.75
2022-07-27T06:01:32.043Z,0.82
2022-07-27T06:02:34.842Z,0.55
2022-07-27T06:03:38.444Z,0.40
2022-07-27T06:04:41.202Z,0.70
2022-07-27T06:05:43.891Z,0.57
2022-07-27T06:07:04.707Z,0.50
2022-07-27T06:08:09.391Z,0.50
2022-07-27T06:09:12.313Z,0.73
2022-07-27T06:10:15.311Z,0.75
2022-07-27T06:11:18.186Z,0.60
2022-07-27T06:12:20.775Z,0.40
2022-07-27T06:13:28.118Z,0.40
2022-07-27T06:14:31.261Z,0.98
2022-07-27T06:15:34.670Z,0.82
2022-07-27T06:16:37.673Z,0.60
2022-07-27T06:17:40.540Z,0.57
2022-07-27T06:18:43.144Z,0.57
2022-07-27T06:19:45.712Z,0.65
2022-07-27T06:20:48.455Z,0.75
2022-07-27T06:21:53.850Z,0.57
2022-07-27T06:23:08.095Z,0.80
2022-07-27T06:24:11.654Z,0.70
2022-07-27T06:25:14.600Z,0.80
2022-07-27T06:26:17.565Z,0.88
2022-07-27T06:27:20.417Z,0.50
2022-07-27T06:28:23.562Z,0.55
2022-07-27T06:29:26.321Z,0.60
2022-07-27T06:30:29.325Z,0.70
2022-07-27T06:31:35.324Z,0.70
2022-07-27T06:32:38.961Z,0.88
2022-07-27T06:33:42.041Z,0.90
2022-07-27T06:34:48.074Z,0.70
2022-07-27T06:35:50.912Z,0.60
2022-07-27T06:36:57.137Z,0.70
2022-07-27T06:37:59.790Z,0.50
2022-07-27T06:39:02.688Z,0.77
2022-07-27T06:40:06.053Z,0.80
2022-07-27T06:41:09.063Z,0.75
2022-07-27T06:42:14.020Z,0.80
2022-07-27T06:43:16.967Z,0.50
2022-07-27T06:44:19.530Z,0.75
2022-07-27T06:45:22.614Z,0.77
2022-07-27T06:46:25.055Z,0.50
2022-07-27T06:47:28.953Z,0.57
2022-07-27T06:48:31.733Z,0.70
2022-07-27T06:49:34.706Z,1.02
2022-07-27T06:50:37.322Z,0.80
2022-07-27T06:51:40.279Z,0.98
2022-07-27T06:52:43.671Z,1.45
2022-07-27T06:53:46.864Z,0.70
2022-07-27T06:54:49.574Z,0.50
2022-07-27T06:55:53.580Z,0.68
2022-07-27T06:56:58.529Z,0.55
2022-07-27T06:58:01.115Z,0.50
2022-07-27T06:59:03.696Z,0.50
2022-07-27T07:00:07.390Z,0.68
2022-07-27T07:01:10.060Z,0.75
2022-07-27T07:02:12.773Z,0.85
2022-07-27T07:03:15.374Z,0.90
2022-07-27T07:04:18.556Z,1.05
2022-07-27T07:05:28.137Z,0.70
2022-07-27T07:06:30.725Z,0.57
2022-07-27T07:07:33.385Z,1.08
2022-07-27T07:08:36.592Z,0.90
2022-07-27T07:09:39.564Z,0.90
2022-07-27T07:10:43.936Z,0.95
2022-07-27T07:11:46.642Z,0.80
2022-07-27T07:12:49.549Z,0.82
2022-07-27T07:13:52.290Z,0.55
2022-07-27T07:14:55.072Z,0.50
2022-07-27T07:15:57.984Z,0.63
2022-07-27T07:17:01.754Z,0.80
2022-07-27T07:18:05.239Z,0.90
2022-07-27T07:19:08.063Z,0.70
2022-07-27T07:20:11.232Z,0.50
2022-07-27T07:21:16.508Z,0.68
2022-07-27T07:22:19.176Z,0.80
2022-07-27T07:23:21.873Z,0.70
2022-07-27T07:24:24.606Z,0.75
2022-07-27T07:25:28.141Z,0.88
2022-07-27T07:26:31.613Z,0.70
2022-07-27T07:27:34.656Z,0.90
2022-07-27T07:28:37.588Z,0.70
2022-07-27T07:29:40.332Z,0.65
2022-07-27T07:30:44.285Z,1.10
2022-07-27T07:31:47.140Z,0.73
2022-07-27T07:32:50.142Z,0.77
2022-07-27T07:33:52.918Z,0.80
2022-07-27T07:34:56.399Z,0.90
2022-07-27T07:36:13.335Z,0.80
2022-07-27T07:37:17.864Z,0.63
2022-07-27T07:38:20.493Z,0.70
2022-07-27T07:39:26.648Z,0.80
2022-07-27T07:40:48.737Z,0.60
2022-07-27T07:41:52.807Z,0.90
2022-07-27T07:42:57.565Z,0.70
2022-07-27T07:44:00.301Z,0.80
2022-07-27T07:45:03.018Z,0.65
2022-07-27T07:46:06.111Z,0.77
2022-07-27T07:47:10.209Z,1.02
2022-07-27T07:48:12.882Z,0.63
2022-07-27T07:49:16.085Z,0.93
2022-07-27T07:50:19.930Z,0.90
2022-07-27T07:51:22.484Z,0.55
2022-07-27T07:52:25.199Z,0.57
2022-07-27T07:53:27.749Z,0.77
2022-07-27T07:54:30.408Z,0.70
2022-07-27T07:55:33.583Z,0.75
2022-07-27T07:56:36.542Z,0.73
2022-07-27T07:57:39.375Z,0.82
2022-07-27T07:58:41.992Z,0.68
2022-07-27T07:59:44.683Z,1.00
2022-07-27T08:00:47.470Z,0.77
2022-07-27T08:01:50.045Z,0.95
2022-07-27T08:02:54.645Z,0.70
2022-07-27T08:03:57.653Z,0.63
2022-07-27T08:05:00.660Z,0.70
2022-07-27T08:06:03.392Z,0.50
2022-07-27T08:07:06.361Z,0.80
2022-07-27T08:08:09.113Z,0.85
2022-07-27T08:09:14.108Z,0.57
2022-07-27T08:10:18.414Z,0.80
2022-07-27T08:11:21.449Z,0.60
2022-07-27T08:12:24.673Z,0.60
2022-07-27T08:13:27.223Z,0.93
2022-07-27T08:14:29.894Z,0.93
2022-07-27T08:15:35.364Z,0.75
2022-07-27T08:16:39.122Z,0.80
2022-07-27T08:17:43.326Z,0.80
2022-07-27T08:18:46.113Z,0.70
2022-07-27T08:19:48.841Z,1.00
2022-07-27T08:20:51.491Z,0.80
2022-07-27T08:21:55.482Z,0.75
2022-07-27T08:22:58.133Z,0.73
2022-07-27T08:24:01.321Z,1.00
2022-07-27T08:25:06.534Z,0.73
2022-07-27T08:26:09.475Z,0.73
2022-07-27T08:27:12.058Z,0.70
2022-07-27T08:28:15.052Z,0.90
2022-07-27T08:29:23.083Z,0.60
2022-07-27T08:30:26.416Z,0.80
2022-07-27T08:31:51.621Z,0.73
2022-07-27T08:32:58.566Z,0.93
2022-07-27T08:34:01.718Z,1.10
2022-07-27T08:35:04.725Z,0.98
2022-07-27T08:36:08.040Z,0.77
2022-07-27T08:37:15.216Z,0.77
2022-07-27T08:38:18.575Z,0.88
2022-07-27T08:40:05.833Z,0.70
2022-07-27T08:40:45.779Z,0.80
2022-07-27T08:41:50.924Z,0.82
2022-07-27T08:42:53.793Z,0.70
2022-07-27T08:43:57.353Z,0.70
2022-07-27T08:45:00.509Z,0.82
2022-07-27T08:46:03.378Z,0.63
2022-07-27T08:47:06.332Z,0.90
2022-07-27T08:48:13.619Z,0.80
2022-07-27T08:49:17.330Z,1.00
2022-07-27T08:50:24.662Z,0.80
2022-07-27T08:51:27.822Z,0.95
2022-07-27T08:52:30.643Z,0.77
2022-07-27T08:53:41.928Z,0.70
2022-07-27T08:54:55.713Z,0.90
2022-07-27T08:55:58.415Z,0.80
2022-07-27T08:57:01.198Z,0.70
2022-07-27T08:58:05.241Z,0.88
2022-07-27T08:59:07.922Z,0.80
2022-07-27T09:00:12.590Z,0.82
2022-07-27T09:01:15.240Z,0.90
2022-07-27T09:02:17.888Z,0.75
2022-07-27T09:03:22.109Z,0.80
2022-07-27T09:04:25.090Z,0.93
2022-07-27T09:05:37.628Z,0.70
2022-07-27T09:06:53.427Z,0.63
2022-07-27T09:08:13.452Z,0.80
2022-07-27T09:09:18.647Z,0.85
2022-07-27T09:10:35.055Z,0.75
2022-07-27T09:11:38.247Z,1.00
2022-07-27T09:12:41.160Z,1.10
2022-07-27T09:13:43.869Z,0.70
2022-07-27T09:14:51.135Z,0.73
2022-07-27T09:16:21.091Z,0.68
2022-07-27T09:17:47.807Z,0.77
2022-07-27T09:18:49.516Z,0.80
2022-07-27T09:20:03.335Z,1.02
2022-07-27T09:21:14.871Z,0.85
2022-07-27T09:22:47.769Z,0.63
2022-07-27T09:23:53.440Z,1.00
2022-07-27T09:25:03.116Z,0.90
2022-07-27T09:26:30.472Z,0.80
2022-07-27T09:27:35.278Z,0.90
2022-07-27T09:28:38.393Z,0.90
2022-07-27T09:29:41.099Z,0.85
2022-07-27T09:30:44.207Z,0.90
2022-07-27T09:31:51.855Z,1.08
2022-07-27T09:33:02.837Z,0.90
2022-07-27T09:34:05.440Z,0.75
2022-07-27T09:35:19.776Z,0.88
2022-07-27T09:36:24.034Z,1.40
2022-07-27T09:37:28.067Z,0.70
2022-07-27T09:38:30.682Z,0.57
2022-07-27T09:39:33.459Z,1.08
2022-07-27T09:40:36.532Z,0.73
2022-07-27T09:41:45.898Z,0.77
2022-07-27T09:43:08.811Z,0.52
2022-07-27T09:44:31.145Z,0.98
2022-07-27T09:45:36.497Z,0.90
2022-07-27T09:46:42.153Z,1.02
2022-07-27T09:47:44.902Z,1.13
2022-07-27T09:48:47.783Z,0.70
2022-07-27T09:49:50.732Z,0.90
2022-07-27T09:51:02.508Z,0.70
2022-07-27T09:52:05.834Z,0.70
2022-07-27T09:53:41.838Z,0.60
2022-07-27T09:54:44.592Z,0.82
2022-07-27T09:56:03.011Z,1.10
2022-07-27T09:57:05.901Z,0.95
2022-07-27T09:58:09.033Z,0.90
2022-07-27T10:00:22.103Z,0.70
2022-07-27T10:01:35.022Z,0.77
2022-07-27T10:02:39.672Z,0.93
2022-07-27T10:03:42.992Z,1.00
2022-07-27T10:04:47.447Z,0.73
2022-07-27T10:05:50.326Z,0.95
2022-07-27T10:07:02.685Z,0.80
2022-07-27T10:08:06.135Z,0.60
2022-07-27T10:09:08.999Z,1.10
2022-07-27T10:10:14.610Z,1.00
2022-07-27T10:11:19.116Z,0.88
2022-07-27T10:12:21.802Z,1.05
2022-07-27T10:13:26.297Z,1.17
2022-07-27T10:14:28.870Z,0.88
2022-07-27T10:15:31.958Z,1.17
2022-07-27T10:16:35.475Z,1.10
2022-07-27T10:17:39.006Z,1.13
2022-07-27T10:19:11.869Z,1.10
2022-07-27T10:20:17.397Z,1.13
2022-07-27T10:21:20.529Z,1.10
2022-07-27T10:22:55.246Z,1.10
2022-07-27T10:24:03.131Z,1.13
2022-07-27T10:25:06.252Z,1.27
2022-07-27T10:26:17.551Z,1.20
2022-07-27T10:27:28.600Z,0.82
2022-07-27T10:28:31.195Z,1.20
2022-07-27T10:29:33.848Z,1.45
2022-07-27T10:30:36.876Z,1.10
2022-07-27T10:31:41.402Z,1.48
2022-07-27T10:32:45.518Z,1.10
2022-07-27T10:33:53.195Z,1.38
2022-07-27T10:34:55.906Z,0.73
2022-07-27T10:35:58.572Z,1.05
2022-07-27T10:37:28.691Z,1.38
2022-07-27T10:38:56.711Z,0.82
2022-07-27T10:40:26.041Z,1.00
2022-07-27T10:41:45.905Z,0.85
2022-07-27T10:42:54.725Z,1.33
2022-07-27T10:44:17.680Z,1.10
2022-07-27T10:45:20.631Z,1.08
2022-07-27T10:46:23.487Z,0.98
2022-07-27T10:47:33.371Z,1.20
2022-07-27T10:48:48.807Z,1.20
2022-07-27T10:50:17.645Z,0.80
2022-07-27T10:51:34.745Z,0.85
2022-07-27T10:52:48.326Z,0.77
2022-07-27T10:55:36.533Z,1.10
2022-07-27T10:56:47.459Z,0.82
2022-07-27T10:57:50.201Z,0.70
2022-07-27T10:58:52.964Z,0.75
2022-07-27T11:00:16.316Z,1.20
2022-07-27T11:01:20.308Z,0.70
2022-07-27T11:02:39.679Z,0.68
2022-07-27T11:03:47.393Z,0.65
2022-07-27T11:04:51.983Z,0.68
2022-07-27T11:06:31.319Z,1.10
2022-07-27T11:07:39.669Z,0.63
2022-07-27T11:09:01.737Z,0.85
2022-07-27T11:10:12.490Z,1.10
2022-07-27T11:11:20.009Z,0.57
2022-07-27T11:12:28.931Z,0.70
2022-07-27T11:13:37.597Z,0.87
2022-07-27T11:14:45.225Z,1.20
2022-07-27T11:15:55.860Z,0.45
2022-07-27T11:18:34.115Z,0.63
2022-07-27T11:19:37.090Z,0.80
2022-07-27T11:20:39.561Z,0.60
2022-07-27T11:21:46.741Z,0.80
2022-07-27T11:24:15.142Z,0.70
2022-07-27T11:25:18.015Z,0.60
2022-07-27T11:26:22.314Z,0.60
2022-07-27T11:27:26.438Z,0.60
2022-07-27T11:28:30.686Z,0.40
2022-07-27T11:29:40.064Z,0.80
2022-07-27T11:30:46.599Z,1.00
2022-07-27T11:31:59.189Z,0.90
2022-07-27T11:33:05.278Z,0.88
2022-07-27T11:34:08.393Z,0.68
2022-07-27T11:35:19.571Z,0.68
2022-07-27T11:36:24.103Z,0.57
2022-07-27T11:37:26.790Z,0.85
2022-07-27T11:38:30.206Z,0.70
2022-07-27T11:41:07.054Z,1.67
2022-07-27T11:42:21.014Z,0.80
2022-07-27T11:43:45.493Z,0.60
2022-07-27T11:44:48.770Z,0.55
2022-07-27T11:45:51.603Z,0.70
2022-07-27T11:46:58.581Z,0.85
2022-07-27T11:48:09.958Z,0.73
2022-07-27T11:49:15.437Z,0.47
2022-07-27T11:50:18.076Z,0.80
2022-07-27T11:51:21.387Z,0.80
2022-07-27T11:52:25.536Z,0.70
2022-07-27T11:53:29.252Z,1.20
2022-07-27T11:54:37.496Z,0.60
2022-07-27T11:55:40.189Z,0.70
2022-07-27T11:56:43.605Z,0.52
2022-07-27T11:57:46.337Z,0.65
2022-07-27T11:59:10.655Z,0.60
2022-07-27T12:00:13.720Z,0.68
2022-07-27T12:01:37.449Z,0.50
2022-07-27T12:02:51.543Z,0.63
2022-07-27T12:04:39.312Z,0.80
2022-07-27T12:05:42.182Z,0.45
2022-07-27T12:06:54.430Z,0.60
2022-07-27T12:07:57.263Z,0.60
2022-07-27T12:09:04.158Z,0.70
2022-07-27T12:10:07.143Z,0.45
2022-07-27T12:11:10.759Z,0.98
2022-07-27T12:12:20.753Z,0.73
2022-07-27T12:13:23.676Z,1.10
2022-07-27T12:14:33.528Z,0.75
2022-07-27T12:15:46.443Z,0.60
2022-07-27T12:16:49.485Z,0.77
2022-07-27T12:17:57.031Z,0.85
2022-07-27T12:18:59.650Z,0.52
2022-07-27T12:20:12.178Z,0.77
2022-07-27T12:21:18.717Z,0.90
2022-07-27T12:22:29.213Z,0.70
2022-07-27T12:23:32.049Z,0.85
2022-07-27T12:24:39.873Z,0.85
2022-07-27T12:25:43.074Z,0.60
2022-07-27T12:27:06.178Z,1.13
2022-07-27T12:28:14.170Z,0.98
2022-07-27T12:29:18.034Z,0.77
2022-07-27T12:30:32.153Z,0.80
2022-07-27T12:31:36.725Z,0.80
2022-07-27T12:32:51.475Z,0.52
2022-07-27T12:34:05.792Z,0.55
2022-07-27T12:35:21.241Z,0.45
2022-07-27T12:36:27.930Z,0.73
2022-07-27T12:37:33.428Z,0.82
2022-07-27T12:38:43.727Z,0.63
2022-07-27T12:39:47.297Z,0.68
2022-07-27T12:40:59.841Z,0.80
2022-07-27T12:42:06.060Z,0.60
2022-07-27T12:43:09.868Z,0.68
2022-07-27T12:44:15.726Z,0.70
2022-07-27T12:45:19.830Z,0.50
2022-07-27T12:46:22.685Z,0.40
2022-07-27T12:47:43.486Z,0.70
2022-07-27T12:48:46.277Z,0.73
2022-07-27T12:50:07.437Z,0.60
2022-07-27T12:51:11.325Z,0.73
2022-07-27T12:52:13.998Z,1.02
2022-07-27T12:53:17.584Z,0.70
2022-07-27T12:54:20.325Z,0.70
2022-07-27T12:55:23.246Z,0.50
2022-07-27T12:56:27.050Z,0.70
2022-07-27T12:57:53.944Z,0.63
2022-07-27T12:59:00.248Z,0.88
2022-07-27T13:00:05.804Z,0.68
2022-07-27T13:01:08.412Z,0.90
2022-07-27T13:02:11.280Z,0.77
2022-07-27T13:03:14.004Z,0.68
2022-07-27T13:04:16.656Z,0.77
2022-07-27T13:05:19.656Z,0.82
2022-07-27T13:06:22.657Z,0.50
2022-07-27T13:07:26.087Z,0.73
2022-07-27T13:08:29.179Z,0.80
2022-07-27T13:10:02.187Z,0.73
2022-07-27T13:10:54.910Z,0.60
2022-07-27T13:12:00.194Z,0.82
2022-07-27T13:13:04.551Z,0.70
2022-07-27T13:14:08.002Z,0.95
2022-07-27T13:15:11.515Z,0.90
2022-07-27T13:16:14.096Z,0.60
2022-07-27T13:17:16.765Z,0.47
2022-07-27T13:18:23.542Z,0.63
2022-07-27T13:19:26.835Z,0.52
2022-07-27T13:20:30.046Z,0.60
2022-07-27T13:21:33.463Z,0.73
2022-07-27T13:22:37.216Z,1.10
2022-07-27T13:23:39.829Z,0.60
2022-07-27T13:24:42.547Z,0.65
2022-07-27T13:25:45.263Z,0.75
2022-07-27T13:26:49.468Z,0.70
2022-07-27T13:27:52.800Z,0.70
2022-07-27T13:28:55.436Z,0.55
2022-07-27T13:29:59.914Z,0.85
2022-07-27T13:31:03.216Z,0.85
2022-07-27T13:32:06.797Z,0.80
2022-07-27T13:33:09.431Z,0.73
2022-07-27T13:34:12.042Z,0.68
2022-07-27T13:35:16.721Z,0.80
2022-07-27T13:36:19.694Z,0.90
2022-07-27T13:37:22.852Z,0.82
2022-07-27T13:38:25.854Z,0.75
2022-07-27T13:39:29.834Z,0.73
2022-07-27T13:40:37.178Z,0.70
2022-07-27T13:41:40.178Z,0.80
2022-07-27T13:42:43.035Z,0.60
2022-07-27T13:43:46.395Z,0.65
2022-07-27T13:45:05.763Z,0.50
2022-07-27T13:46:11.759Z,1.00
2022-07-27T13:47:14.569Z,1.05
2022-07-27T13:48:17.482Z,0.80
2022-07-27T13:49:20.280Z,0.47
2022-07-27T13:50:23.680Z,0.88
2022-07-27T13:51:28.451Z,0.60
2022-07-27T13:52:31.096Z,0.50
2022-07-27T13:53:33.907Z,0.80
2022-07-27T13:54:36.515Z,0.50
2022-07-27T13:55:39.318Z,0.50
2022-07-27T13:56:42.780Z,0.80
2022-07-27T13:57:46.862Z,0.68
2022-07-27T13:58:49.437Z,0.70
2022-07-27T13:59:52.371Z,0.90
2022-07-27T14:00:55.486Z,0.68
2022-07-27T14:01:58.504Z,0.68
2022-07-27T14:03:01.633Z,0.52
2022-07-27T14:04:06.139Z,0.80
2022-07-27T14:05:14.172Z,0.50
2022-07-27T14:06:18.454Z,0.45
2022-07-27T14:07:27.782Z,0.80
2022-07-27T14:08:31.071Z,0.77
2022-07-27T14:09:52.473Z,0.98
2022-07-27T14:10:54.989Z,0.77
2022-07-27T14:11:58.716Z,0.70
2022-07-27T14:13:07.369Z,1.00
2022-07-27T14:14:11.400Z,0.55
2022-07-27T14:15:14.064Z,0.52
2022-07-27T14:16:16.826Z,0.73
2022-07-27T14:17:19.588Z,0.75
2022-07-27T14:18:24.554Z,0.75
2022-07-27T14:19:28.364Z,0.50
2022-07-27T14:20:31.667Z,0.88
2022-07-27T14:21:34.343Z,0.65
2022-07-27T14:22:37.074Z,0.75
2022-07-27T14:23:40.698Z,0.80
2022-07-27T14:24:44.164Z,0.70
2022-07-27T14:25:47.038Z,0.50
2022-07-27T14:26:49.647Z,0.80
2022-07-27T14:27:53.016Z,0.73
2022-07-27T14:28:57.789Z,0.80
2022-07-27T14:30:00.648Z,1.02
2022-07-27T14:31:06.603Z,0.63
2022-07-27T14:32:10.332Z,0.70
2022-07-27T14:33:14.163Z,1.08
2022-07-27T14:34:16.886Z,0.63
2022-07-27T14:35:20.885Z,0.70